sensor_id;sensor_type;location;lat;lon;timestamp;P1;durP1;ratioP1;P2;durP2;ratioP2
16770;SDS011;8503;52.472;13.344;2024-02-26T00:00:25;11.25;;;4.65;;
16770;SDS011;8503;52.472;13.344;2024-02-26T00:01:08;5.63;;;3.55;;
16770;SDS011;8503;52.472;13.344;2024-02-26T00:01:52;8.25;;;4.18;;
16770;SDS011;8503;52.472;13.344;2024-02-26T00:02:34;7.05;;;3.75;;
16770;SDS011;8503;52.472;13.344;2024-02-26T00:03:19;6.72;;;3.65;;
16770;SDS011;8503;52.472;13.344;2024-02-26T00:04:03;8.77;;;4.85;;
16770;SDS011;8503;52.472;13.344;2024-02-26T00:04:45;6.43;;;3.92;;
16770;SDS011;8503;52.472;13.344;2024-02-26T00:05:28;8.15;;;4.22;;
16770;SDS011;8503;52.472;13.344;2024-02-26T00:06:13;8.02;;;4.07;;
16770;SDS011;8503;52.472;13.344;2024-02-26T00:06:55;6.35;;;3.50;;
16770;SDS011;8503;52.472;13.344;2024-02-26T00:07:39;7.20;;;4.22;;
16770;SDS011;8503;52.472;13.344;2024-02-26T00:08:24;7.10;;;3.78;;
16770;SDS011;8503;52.472;13.344;2024-02-26T00:09:07;6.90;;;3.88;;
16770;SDS011;8503;52.472;13.344;2024-02-26T00:09:49;7.75;;;3.95;;
16770;SDS011;8503;52.472;13.344;2024-02-26T00:10:32;9.13;;;3.85;;
16770;SDS011;8503;52.472;13.344;2024-02-26T00:11:15;7.40;;;3.58;;
16770;SDS011;8503;52.472;13.344;2024-02-26T00:11:57;12.40;;;4.15;;
16770;SDS011;8503;52.472;13.344;2024-02-26T00:12:42;9.63;;;4.22;;
16770;SDS011;8503;52.472;13.344;2024-02-26T00:13:26;8.48;;;3.67;;
16770;SDS011;8503;52.472;13.344;2024-02-26T00:14:08;6.35;;;3.75;;
16770;SDS011;8503;52.472;13.344;2024-02-26T00:14:51;7.47;;;3.60;;
16770;SDS011;8503;52.472;13.344;2024-02-26T00:15:35;6.80;;;4.00;;
16770;SDS011;8503;52.472;13.344;2024-02-26T00:16:17;6.50;;;3.78;;
16770;SDS011;8503;52.472;13.344;2024-02-26T00:17:00;9.10;;;4.72;;
16770;SDS011;8503;52.472;13.344;2024-02-26T00:17:44;6.22;;;3.78;;
16770;SDS011;8503;52.472;13.344;2024-02-26T00:18:26;9.13;;;4.55;;
16770;SDS011;8503;52.472;13.344;2024-02-26T00:19:09;10.50;;;4.22;;
16770;SDS011;8503;52.472;13.344;2024-02-26T00:20:37;9.77;;;4.28;;
16770;SDS011;8503;52.472;13.344;2024-02-26T00:21:21;7.82;;;4.20;;
16770;SDS011;8503;52.472;13.344;2024-02-26T00:22:05;8.35;;;4.40;;
16770;SDS011;8503;52.472;13.344;2024-02-26T00:22:47;6.55;;;4.45;;
16770;SDS011;8503;52.472;13.344;2024-02-26T00:23:29;8.50;;;5.47;;
16770;SDS011;8503;52.472;13.344;2024-02-26T00:24:13;9.60;;;5.20;;
16770;SDS011;8503;52.472;13.344;2024-02-26T00:24:55;9.63;;;4.88;;
16770;SDS011;8503;52.472;13.344;2024-02-26T00:25:38;7.57;;;4.35;;
16770;SDS011;8503;52.472;13.344;2024-02-26T00:26:23;9.20;;;5.07;;
16770;SDS011;8503;52.472;13.344;2024-02-26T00:27:05;8.80;;;4.78;;
16770;SDS011;8503;52.472;13.344;2024-02-26T00:27:49;10.52;;;5.07;;
16770;SDS011;8503;52.472;13.344;2024-02-26T00:28:33;9.43;;;5.32;;
16770;SDS011;8503;52.472;13.344;2024-02-26T00:29:15;11.13;;;5.60;;
16770;SDS011;8503;52.472;13.344;2024-02-26T00:29:58;7.75;;;4.38;;
16770;SDS011;8503;52.472;13.344;2024-02-26T00:30:41;10.25;;;5.10;;
16770;SDS011;8503;52.472;13.344;2024-02-26T00:31:24;12.80;;;5.55;;
16770;SDS011;8503;52.472;13.344;2024-02-26T00:32:06;11.13;;;5.90;;
16770;SDS011;8503;52.472;13.344;2024-02-26T00:32:50;12.70;;;5.80;;
16770;SDS011;8503;52.472;13.344;2024-02-26T00:33:32;12.13;;;6.85;;
16770;SDS011;8503;52.472;13.344;2024-02-26T00:34:15;12.35;;;5.75;;
16770;SDS011;8503;52.472;13.344;2024-02-26T00:34:59;7.53;;;4.72;;
16770;SDS011;8503;52.472;13.344;2024-02-26T00:35:41;10.73;;;5.10;;
16770;SDS011;8503;52.472;13.344;2024-02-26T00:36:23;10.77;;;5.70;;
16770;SDS011;8503;52.472;13.344;2024-02-26T00:37:07;8.27;;;5.78;;
16770;SDS011;8503;52.472;13.344;2024-02-26T00:37:49;8.98;;;5.45;;
16770;SDS011;8503;52.472;13.344;2024-02-26T00:38:32;14.85;;;6.80;;
16770;SDS011;8503;52.472;13.344;2024-02-26T00:39:15;9.48;;;5.65;;
16770;SDS011;8503;52.472;13.344;2024-02-26T00:39:58;11.10;;;5.80;;
16770;SDS011;8503;52.472;13.344;2024-02-26T00:40:41;9.75;;;5.80;;
16770;SDS011;8503;52.472;13.344;2024-02-26T00:41:23;16.75;;;6.50;;
16770;SDS011;8503;52.472;13.344;2024-02-26T00:42:06;8.48;;;5.45;;
16770;SDS011;8503;52.472;13.344;2024-02-26T00:42:51;9.50;;;5.20;;
16770;SDS011;8503;52.472;13.344;2024-02-26T00:43:33;9.23;;;5.47;;
16770;SDS011;8503;52.472;13.344;2024-02-26T00:44:19;6.97;;;4.55;;
16770;SDS011;8503;52.472;13.344;2024-02-26T00:45:01;9.73;;;5.13;;
16770;SDS011;8503;52.472;13.344;2024-02-26T00:45:44;10.07;;;5.28;;
16770;SDS011;8503;52.472;13.344;2024-02-26T00:46:31;9.25;;;5.15;;
16770;SDS011;8503;52.472;13.344;2024-02-26T00:47:13;11.00;;;6.40;;
16770;SDS011;8503;52.472;13.344;2024-02-26T00:47:55;10.50;;;5.22;;
16770;SDS011;8503;52.472;13.344;2024-02-26T00:48:39;14.02;;;5.50;;
16770;SDS011;8503;52.472;13.344;2024-02-26T00:49:21;15.55;;;5.22;;
16770;SDS011;8503;52.472;13.344;2024-02-26T00:50:04;12.52;;;6.35;;
16770;SDS011;8503;52.472;13.344;2024-02-26T00:50:49;11.63;;;6.10;;
16770;SDS011;8503;52.472;13.344;2024-02-26T00:51:32;11.90;;;5.50;;
16770;SDS011;8503;52.472;13.344;2024-02-26T00:52:14;8.35;;;5.85;;
16770;SDS011;8503;52.472;13.344;2024-02-26T00:52:57;11.80;;;6.45;;
16770;SDS011;8503;52.472;13.344;2024-02-26T00:53:40;9.32;;;6.07;;
16770;SDS011;8503;52.472;13.344;2024-02-26T00:54:23;9.63;;;5.85;;
16770;SDS011;8503;52.472;13.344;2024-02-26T00:55:07;12.35;;;5.70;;
16770;SDS011;8503;52.472;13.344;2024-02-26T00:55:50;8.52;;;5.30;;
16770;SDS011;8503;52.472;13.344;2024-02-26T00:56:32;8.43;;;5.35;;
16770;SDS011;8503;52.472;13.344;2024-02-26T00:57:15;11.18;;;5.47;;
16770;SDS011;8503;52.472;13.344;2024-02-26T00:57:59;11.48;;;6.10;;
16770;SDS011;8503;52.472;13.344;2024-02-26T00:58:42;8.95;;;5.68;;
16770;SDS011;8503;52.472;13.344;2024-02-26T00:59:25;9.77;;;5.13;;
16770;SDS011;8503;52.472;13.344;2024-02-26T01:00:08;9.25;;;5.80;;
16770;SDS011;8503;52.472;13.344;2024-02-26T01:00:51;11.07;;;5.88;;
16770;SDS011;8503;52.472;13.344;2024-02-26T01:01:34;11.48;;;5.80;;
16770;SDS011;8503;52.472;13.344;2024-02-26T01:02:17;9.25;;;5.90;;
16770;SDS011;8503;52.472;13.344;2024-02-26T01:02:59;8.73;;;5.68;;
16770;SDS011;8503;52.472;13.344;2024-02-26T01:03:44;8.30;;;5.45;;
16770;SDS011;8503;52.472;13.344;2024-02-26T01:04:27;9.55;;;4.75;;
16770;SDS011;8503;52.472;13.344;2024-02-26T01:05:09;13.80;;;5.03;;
16770;SDS011;8503;52.472;13.344;2024-02-26T01:05:53;7.63;;;5.00;;
16770;SDS011;8503;52.472;13.344;2024-02-26T01:06:39;7.70;;;5.35;;
16770;SDS011;8503;52.472;13.344;2024-02-26T01:07:22;7.30;;;4.47;;
16770;SDS011;8503;52.472;13.344;2024-02-26T01:08:06;10.18;;;5.22;;
16770;SDS011;8503;52.472;13.344;2024-02-26T01:08:49;7.95;;;5.10;;
16770;SDS011;8503;52.472;13.344;2024-02-26T01:09:32;11.25;;;5.43;;
16770;SDS011;8503;52.472;13.344;2024-02-26T01:10:16;9.23;;;5.78;;
16770;SDS011;8503;52.472;13.344;2024-02-26T01:10:58;9.77;;;5.18;;
16770;SDS011;8503;52.472;13.344;2024-02-26T01:11:43;7.30;;;4.97;;
16770;SDS011;8503;52.472;13.344;2024-02-26T01:12:28;7.93;;;4.38;;
16770;SDS011;8503;52.472;13.344;2024-02-26T01:13:12;11.02;;;5.35;;
16770;SDS011;8503;52.472;13.344;2024-02-26T01:13:55;9.45;;;5.18;;
16770;SDS011;8503;52.472;13.344;2024-02-26T01:14:39;8.02;;;5.68;;
16770;SDS011;8503;52.472;13.344;2024-02-26T01:15:21;10.02;;;5.03;;
16770;SDS011;8503;52.472;13.344;2024-02-26T01:16:05;9.10;;;4.82;;
16770;SDS011;8503;52.472;13.344;2024-02-26T01:16:49;10.13;;;5.15;;
16770;SDS011;8503;52.472;13.344;2024-02-26T01:17:31;13.73;;;6.72;;
16770;SDS011;8503;52.472;13.344;2024-02-26T01:18:14;9.48;;;5.05;;
16770;SDS011;8503;52.472;13.344;2024-02-26T01:18:58;7.90;;;5.03;;
16770;SDS011;8503;52.472;13.344;2024-02-26T01:19:40;9.25;;;5.70;;
16770;SDS011;8503;52.472;13.344;2024-02-26T01:20:23;11.27;;;5.53;;
16770;SDS011;8503;52.472;13.344;2024-02-26T01:21:06;9.43;;;4.88;;
16770;SDS011;8503;52.472;13.344;2024-02-26T01:21:50;8.85;;;5.45;;
16770;SDS011;8503;52.472;13.344;2024-02-26T01:22:33;13.07;;;5.85;;
16770;SDS011;8503;52.472;13.344;2024-02-26T01:23:16;8.88;;;4.78;;
16770;SDS011;8503;52.472;13.344;2024-02-26T01:23:58;8.82;;;4.70;;
16770;SDS011;8503;52.472;13.344;2024-02-26T01:24:42;8.38;;;4.90;;
16770;SDS011;8503;52.472;13.344;2024-02-26T01:25:25;8.60;;;5.97;;
16770;SDS011;8503;52.472;13.344;2024-02-26T01:26:08;9.95;;;4.88;;
16770;SDS011;8503;52.472;13.344;2024-02-26T01:26:52;8.80;;;5.47;;
16770;SDS011;8503;52.472;13.344;2024-02-26T01:27:34;9.38;;;5.22;;
16770;SDS011;8503;52.472;13.344;2024-02-26T01:28:18;9.52;;;5.00;;
16770;SDS011;8503;52.472;13.344;2024-02-26T01:29:01;10.65;;;5.07;;
16770;SDS011;8503;52.472;13.344;2024-02-26T01:29:45;10.95;;;5.72;;
16770;SDS011;8503;52.472;13.344;2024-02-26T01:30:28;7.63;;;5.40;;
16770;SDS011;8503;52.472;13.344;2024-02-26T01:31:10;12.18;;;5.75;;
16770;SDS011;8503;52.472;13.344;2024-02-26T01:31:53;11.20;;;5.97;;
16770;SDS011;8503;52.472;13.344;2024-02-26T01:32:36;9.00;;;5.47;;
16770;SDS011;8503;52.472;13.344;2024-02-26T01:33:19;9.18;;;5.13;;
16770;SDS011;8503;52.472;13.344;2024-02-26T01:34:05;8.80;;;4.57;;
16770;SDS011;8503;52.472;13.344;2024-02-26T01:34:48;8.23;;;4.65;;
16770;SDS011;8503;52.472;13.344;2024-02-26T01:35:31;8.63;;;5.50;;
16770;SDS011;8503;52.472;13.344;2024-02-26T01:36:13;9.82;;;5.47;;
16770;SDS011;8503;52.472;13.344;2024-02-26T01:36:57;9.43;;;4.97;;
16770;SDS011;8503;52.472;13.344;2024-02-26T01:37:39;7.50;;;5.15;;
16770;SDS011;8503;52.472;13.344;2024-02-26T01:38:22;9.38;;;5.85;;
16770;SDS011;8503;52.472;13.344;2024-02-26T01:39:05;6.68;;;4.93;;
16770;SDS011;8503;52.472;13.344;2024-02-26T01:39:48;9.85;;;4.75;;
16770;SDS011;8503;52.472;13.344;2024-02-26T01:40:31;8.70;;;5.75;;
16770;SDS011;8503;52.472;13.344;2024-02-26T01:41:13;8.10;;;5.13;;
16770;SDS011;8503;52.472;13.344;2024-02-26T01:41:56;8.50;;;5.45;;
16770;SDS011;8503;52.472;13.344;2024-02-26T01:42:39;8.35;;;5.03;;
16770;SDS011;8503;52.472;13.344;2024-02-26T01:43:24;9.77;;;5.40;;
16770;SDS011;8503;52.472;13.344;2024-02-26T01:44:07;6.45;;;4.88;;
16770;SDS011;8503;52.472;13.344;2024-02-26T01:44:49;11.20;;;5.10;;
16770;SDS011;8503;52.472;13.344;2024-02-26T01:45:32;8.80;;;5.00;;
16770;SDS011;8503;52.472;13.344;2024-02-26T01:46:15;9.35;;;6.00;;
16770;SDS011;8503;52.472;13.344;2024-02-26T01:46:58;6.97;;;5.15;;
16770;SDS011;8503;52.472;13.344;2024-02-26T01:47:42;7.90;;;4.63;;
16770;SDS011;8503;52.472;13.344;2024-02-26T01:48:27;10.10;;;5.55;;
16770;SDS011;8503;52.472;13.344;2024-02-26T01:49:11;9.07;;;5.03;;
16770;SDS011;8503;52.472;13.344;2024-02-26T01:49:55;7.88;;;4.53;;
16770;SDS011;8503;52.472;13.344;2024-02-26T01:50:37;8.27;;;4.97;;
16770;SDS011;8503;52.472;13.344;2024-02-26T01:51:21;9.68;;;5.55;;
16770;SDS011;8503;52.472;13.344;2024-02-26T01:52:04;7.60;;;4.70;;
16770;SDS011;8503;52.472;13.344;2024-02-26T01:52:49;11.05;;;5.45;;
16770;SDS011;8503;52.472;13.344;2024-02-26T01:53:33;9.35;;;5.50;;
16770;SDS011;8503;52.472;13.344;2024-02-26T01:54:16;6.93;;;4.60;;
16770;SDS011;8503;52.472;13.344;2024-02-26T01:55:01;10.45;;;5.35;;
16770;SDS011;8503;52.472;13.344;2024-02-26T01:55:44;8.25;;;4.93;;
16770;SDS011;8503;52.472;13.344;2024-02-26T01:56:26;10.30;;;5.20;;
16770;SDS011;8503;52.472;13.344;2024-02-26T01:57:12;8.65;;;5.30;;
16770;SDS011;8503;52.472;13.344;2024-02-26T01:57:56;7.43;;;4.82;;
16770;SDS011;8503;52.472;13.344;2024-02-26T01:58:40;7.55;;;5.00;;
16770;SDS011;8503;52.472;13.344;2024-02-26T01:59:24;9.38;;;4.88;;
16770;SDS011;8503;52.472;13.344;2024-02-26T02:00:07;6.03;;;4.65;;
16770;SDS011;8503;52.472;13.344;2024-02-26T02:00:50;10.88;;;5.68;;
16770;SDS011;8503;52.472;13.344;2024-02-26T02:01:33;11.88;;;5.55;;
16770;SDS011;8503;52.472;13.344;2024-02-26T02:02:17;9.85;;;5.38;;
16770;SDS011;8503;52.472;13.344;2024-02-26T02:02:59;9.93;;;5.40;;
16770;SDS011;8503;52.472;13.344;2024-02-26T02:03:42;9.65;;;5.28;;
16770;SDS011;8503;52.472;13.344;2024-02-26T02:04:27;11.57;;;5.55;;
16770;SDS011;8503;52.472;13.344;2024-02-26T02:05:10;6.18;;;4.28;;
16770;SDS011;8503;52.472;13.344;2024-02-26T02:05:54;10.32;;;5.32;;
16770;SDS011;8503;52.472;13.344;2024-02-26T02:06:37;8.70;;;5.45;;
16770;SDS011;8503;52.472;13.344;2024-02-26T02:07:20;6.78;;;4.57;;
16770;SDS011;8503;52.472;13.344;2024-02-26T02:08:03;8.98;;;4.82;;
16770;SDS011;8503;52.472;13.344;2024-02-26T02:08:47;10.98;;;5.10;;
16770;SDS011;8503;52.472;13.344;2024-02-26T02:09:30;6.00;;;4.32;;
16770;SDS011;8503;52.472;13.344;2024-02-26T02:10:14;9.65;;;4.78;;
16770;SDS011;8503;52.472;13.344;2024-02-26T02:10:57;6.45;;;4.75;;
16770;SDS011;8503;52.472;13.344;2024-02-26T02:11:40;11.98;;;5.10;;
16770;SDS011;8503;52.472;13.344;2024-02-26T02:12:22;7.00;;;4.63;;
16770;SDS011;8503;52.472;13.344;2024-02-26T02:13:06;8.25;;;4.93;;
16770;SDS011;8503;52.472;13.344;2024-02-26T02:13:50;7.25;;;4.72;;
16770;SDS011;8503;52.472;13.344;2024-02-26T02:14:32;8.60;;;5.07;;
16770;SDS011;8503;52.472;13.344;2024-02-26T02:15:16;8.63;;;4.18;;
16770;SDS011;8503;52.472;13.344;2024-02-26T02:15:59;8.45;;;5.03;;
16770;SDS011;8503;52.472;13.344;2024-02-26T02:16:42;11.40;;;5.50;;
16770;SDS011;8503;52.472;13.344;2024-02-26T02:17:25;10.05;;;5.45;;
16770;SDS011;8503;52.472;13.344;2024-02-26T02:18:08;7.57;;;3.85;;
16770;SDS011;8503;52.472;13.344;2024-02-26T02:18:51;9.77;;;5.03;;
16770;SDS011;8503;52.472;13.344;2024-02-26T02:19:35;6.85;;;4.55;;
16770;SDS011;8503;52.472;13.344;2024-02-26T02:20:17;10.15;;;4.75;;
16770;SDS011;8503;52.472;13.344;2024-02-26T02:21:02;7.93;;;4.50;;
16770;SDS011;8503;52.472;13.344;2024-02-26T02:21:46;8.65;;;5.18;;
16770;SDS011;8503;52.472;13.344;2024-02-26T02:22:28;6.10;;;3.88;;
16770;SDS011;8503;52.472;13.344;2024-02-26T02:23:10;9.55;;;4.70;;
16770;SDS011;8503;52.472;13.344;2024-02-26T02:23:55;8.93;;;4.13;;
16770;SDS011;8503;52.472;13.344;2024-02-26T02:24:37;9.05;;;5.40;;
16770;SDS011;8503;52.472;13.344;2024-02-26T02:25:20;6.25;;;4.47;;
16770;SDS011;8503;52.472;13.344;2024-02-26T02:26:04;7.60;;;4.13;;
16770;SDS011;8503;52.472;13.344;2024-02-26T02:26:46;10.27;;;4.35;;
16770;SDS011;8503;52.472;13.344;2024-02-26T02:27:29;8.23;;;4.85;;
16770;SDS011;8503;52.472;13.344;2024-02-26T02:28:12;8.93;;;4.90;;
16770;SDS011;8503;52.472;13.344;2024-02-26T02:28:55;7.28;;;4.82;;
16770;SDS011;8503;52.472;13.344;2024-02-26T02:29:37;7.60;;;4.68;;
16770;SDS011;8503;52.472;13.344;2024-02-26T02:30:20;9.40;;;4.95;;
16770;SDS011;8503;52.472;13.344;2024-02-26T02:31:04;6.43;;;4.55;;
16770;SDS011;8503;52.472;13.344;2024-02-26T02:31:47;7.55;;;4.25;;
16770;SDS011;8503;52.472;13.344;2024-02-26T02:32:30;6.88;;;4.15;;
16770;SDS011;8503;52.472;13.344;2024-02-26T02:33:13;8.15;;;3.95;;
16770;SDS011;8503;52.472;13.344;2024-02-26T02:33:56;8.57;;;4.93;;
16770;SDS011;8503;52.472;13.344;2024-02-26T02:34:39;7.43;;;4.55;;
16770;SDS011;8503;52.472;13.344;2024-02-26T02:35:22;6.65;;;4.28;;
16770;SDS011;8503;52.472;13.344;2024-02-26T02:36:07;6.35;;;4.75;;
16770;SDS011;8503;52.472;13.344;2024-02-26T02:36:51;7.45;;;4.95;;
16770;SDS011;8503;52.472;13.344;2024-02-26T02:37:35;5.72;;;4.22;;
16770;SDS011;8503;52.472;13.344;2024-02-26T02:38:19;7.15;;;4.10;;
16770;SDS011;8503;52.472;13.344;2024-02-26T02:39:01;7.93;;;3.97;;
16770;SDS011;8503;52.472;13.344;2024-02-26T02:39:44;9.00;;;4.63;;
16770;SDS011;8503;52.472;13.344;2024-02-26T02:40:27;5.10;;;3.97;;
16770;SDS011;8503;52.472;13.344;2024-02-26T02:41:10;8.57;;;4.55;;
16770;SDS011;8503;52.472;13.344;2024-02-26T02:41:53;6.25;;;4.07;;
16770;SDS011;8503;52.472;13.344;2024-02-26T02:42:36;6.03;;;4.30;;
16770;SDS011;8503;52.472;13.344;2024-02-26T02:43:18;6.55;;;4.05;;
16770;SDS011;8503;52.472;13.344;2024-02-26T02:44:02;7.63;;;3.63;;
16770;SDS011;8503;52.472;13.344;2024-02-26T02:44:47;7.22;;;3.35;;
16770;SDS011;8503;52.472;13.344;2024-02-26T02:45:30;8.20;;;4.10;;
16770;SDS011;8503;52.472;13.344;2024-02-26T02:46:13;6.53;;;4.40;;
16770;SDS011;8503;52.472;13.344;2024-02-26T02:46:56;7.22;;;4.28;;
16770;SDS011;8503;52.472;13.344;2024-02-26T02:47:38;8.32;;;4.45;;
16770;SDS011;8503;52.472;13.344;2024-02-26T02:48:21;5.72;;;3.22;;
16770;SDS011;8503;52.472;13.344;2024-02-26T02:49:07;7.13;;;4.05;;
16770;SDS011;8503;52.472;13.344;2024-02-26T02:50:33;3.90;;;3.08;;
16770;SDS011;8503;52.472;13.344;2024-02-26T02:51:17;6.15;;;3.90;;
16770;SDS011;8503;52.472;13.344;2024-02-26T02:52:00;5.90;;;3.10;;
16770;SDS011;8503;52.472;13.344;2024-02-26T02:52:42;5.40;;;3.42;;
16770;SDS011;8503;52.472;13.344;2024-02-26T02:53:26;8.70;;;3.92;;
16770;SDS011;8503;52.472;13.344;2024-02-26T02:54:08;4.50;;;3.10;;
16770;SDS011;8503;52.472;13.344;2024-02-26T02:54:51;3.70;;;2.38;;
16770;SDS011;8503;52.472;13.344;2024-02-26T02:55:42;4.13;;;2.70;;
16770;SDS011;8503;52.472;13.344;2024-02-26T02:56:25;6.47;;;2.85;;
16770;SDS011;8503;52.472;13.344;2024-02-26T02:57:08;4.38;;;3.28;;
16770;SDS011;8503;52.472;13.344;2024-02-26T02:57:51;5.32;;;3.00;;
16770;SDS011;8503;52.472;13.344;2024-02-26T02:58:34;5.47;;;3.63;;
16770;SDS011;8503;52.472;13.344;2024-02-26T02:59:17;4.82;;;2.95;;
16770;SDS011;8503;52.472;13.344;2024-02-26T03:00:00;6.88;;;3.15;;
16770;SDS011;8503;52.472;13.344;2024-02-26T03:00:45;4.93;;;3.40;;
16770;SDS011;8503;52.472;13.344;2024-02-26T03:01:28;5.30;;;2.63;;
16770;SDS011;8503;52.472;13.344;2024-02-26T03:02:10;6.00;;;3.58;;
16770;SDS011;8503;52.472;13.344;2024-02-26T03:02:53;4.68;;;2.75;;
16770;SDS011;8503;52.472;13.344;2024-02-26T03:03:36;6.25;;;2.70;;
16770;SDS011;8503;52.472;13.344;2024-02-26T03:04:19;5.05;;;3.17;;
16770;SDS011;8503;52.472;13.344;2024-02-26T03:05:01;3.92;;;2.85;;
16770;SDS011;8503;52.472;13.344;2024-02-26T03:05:45;5.10;;;3.22;;
16770;SDS011;8503;52.472;13.344;2024-02-26T03:06:29;5.00;;;3.10;;
16770;SDS011;8503;52.472;13.344;2024-02-26T03:07:19;4.60;;;2.88;;
16770;SDS011;8503;52.472;13.344;2024-02-26T03:08:02;4.20;;;3.22;;
16770;SDS011;8503;52.472;13.344;2024-02-26T03:08:45;5.32;;;2.95;;
16770;SDS011;8503;52.472;13.344;2024-02-26T03:09:27;5.65;;;3.15;;
16770;SDS011;8503;52.472;13.344;2024-02-26T03:10:11;5.13;;;2.83;;
16770;SDS011;8503;52.472;13.344;2024-02-26T03:10:54;4.40;;;2.65;;
16770;SDS011;8503;52.472;13.344;2024-02-26T03:11:39;6.95;;;3.83;;
16770;SDS011;8503;52.472;13.344;2024-02-26T03:12:24;3.88;;;2.72;;
16770;SDS011;8503;52.472;13.344;2024-02-26T03:13:07;4.05;;;2.95;;
16770;SDS011;8503;52.472;13.344;2024-02-26T03:13:49;5.07;;;3.40;;
16770;SDS011;8503;52.472;13.344;2024-02-26T03:14:33;4.55;;;3.10;;
16770;SDS011;8503;52.472;13.344;2024-02-26T03:15:15;4.80;;;2.83;;
16770;SDS011;8503;52.472;13.344;2024-02-26T03:15:58;4.25;;;2.92;;
16770;SDS011;8503;52.472;13.344;2024-02-26T03:16:46;4.82;;;2.78;;
16770;SDS011;8503;52.472;13.344;2024-02-26T03:17:30;4.13;;;2.60;;
16770;SDS011;8503;52.472;13.344;2024-02-26T03:18:13;4.80;;;2.85;;
16770;SDS011;8503;52.472;13.344;2024-02-26T03:18:56;4.30;;;2.88;;
16770;SDS011;8503;52.472;13.344;2024-02-26T03:19:39;6.30;;;3.60;;
16770;SDS011;8503;52.472;13.344;2024-02-26T03:20:21;4.43;;;2.58;;
16770;SDS011;8503;52.472;13.344;2024-02-26T03:21:05;5.50;;;2.78;;
16770;SDS011;8503;52.472;13.344;2024-02-26T03:21:49;3.05;;;2.50;;
16770;SDS011;8503;52.472;13.344;2024-02-26T03:22:31;5.22;;;2.95;;
16770;SDS011;8503;52.472;13.344;2024-02-26T03:23:15;3.15;;;2.33;;
16770;SDS011;8503;52.472;13.344;2024-02-26T03:23:58;5.55;;;3.20;;
16770;SDS011;8503;52.472;13.344;2024-02-26T03:24:40;4.78;;;2.55;;
16770;SDS011;8503;52.472;13.344;2024-02-26T03:25:24;4.18;;;2.83;;
16770;SDS011;8503;52.472;13.344;2024-02-26T03:26:06;4.78;;;2.47;;
16770;SDS011;8503;52.472;13.344;2024-02-26T03:26:50;3.97;;;2.42;;
16770;SDS011;8503;52.472;13.344;2024-02-26T03:27:34;6.00;;;2.80;;
16770;SDS011;8503;52.472;13.344;2024-02-26T03:28:16;5.78;;;2.97;;
16770;SDS011;8503;52.472;13.344;2024-02-26T03:28:59;4.85;;;2.78;;
16770;SDS011;8503;52.472;13.344;2024-02-26T03:29:43;4.45;;;2.88;;
16770;SDS011;8503;52.472;13.344;2024-02-26T03:30:26;4.53;;;2.92;;
16770;SDS011;8503;52.472;13.344;2024-02-26T03:31:08;5.63;;;2.70;;
16770;SDS011;8503;52.472;13.344;2024-02-26T03:31:53;4.10;;;3.30;;
16770;SDS011;8503;52.472;13.344;2024-02-26T03:32:36;5.75;;;3.13;;
16770;SDS011;8503;52.472;13.344;2024-02-26T03:33:18;5.68;;;3.58;;
16770;SDS011;8503;52.472;13.344;2024-02-26T03:34:02;3.83;;;2.88;;
16770;SDS011;8503;52.472;13.344;2024-02-26T03:34:45;5.22;;;3.47;;
16770;SDS011;8503;52.472;13.344;2024-02-26T03:35:27;4.43;;;2.85;;
16770;SDS011;8503;52.472;13.344;2024-02-26T03:36:11;6.13;;;3.25;;
16770;SDS011;8503;52.472;13.344;2024-02-26T03:36:55;6.32;;;3.40;;
16770;SDS011;8503;52.472;13.344;2024-02-26T03:37:37;5.25;;;3.15;;
16770;SDS011;8503;52.472;13.344;2024-02-26T03:38:21;4.88;;;2.78;;
16770;SDS011;8503;52.472;13.344;2024-02-26T03:39:03;3.97;;;2.72;;
16770;SDS011;8503;52.472;13.344;2024-02-26T03:39:48;5.25;;;2.83;;
16770;SDS011;8503;52.472;13.344;2024-02-26T03:40:32;4.35;;;2.92;;
16770;SDS011;8503;52.472;13.344;2024-02-26T03:41:14;4.97;;;3.05;;
16770;SDS011;8503;52.472;13.344;2024-02-26T03:41:58;4.28;;;2.47;;
16770;SDS011;8503;52.472;13.344;2024-02-26T03:42:42;4.53;;;2.78;;
16770;SDS011;8503;52.472;13.344;2024-02-26T03:43:24;4.60;;;2.72;;
16770;SDS011;8503;52.472;13.344;2024-02-26T03:44:07;6.78;;;3.40;;
16770;SDS011;8503;52.472;13.344;2024-02-26T03:44:51;4.25;;;3.13;;
16770;SDS011;8503;52.472;13.344;2024-02-26T03:45:33;7.40;;;3.55;;
16770;SDS011;8503;52.472;13.344;2024-02-26T03:46:15;7.30;;;3.55;;
16770;SDS011;8503;52.472;13.344;2024-02-26T03:46:59;4.95;;;2.92;;
16770;SDS011;8503;52.472;13.344;2024-02-26T03:47:41;3.63;;;2.88;;
16770;SDS011;8503;52.472;13.344;2024-02-26T03:48:24;4.72;;;3.33;;
16770;SDS011;8503;52.472;13.344;2024-02-26T03:49:07;5.25;;;2.85;;
16770;SDS011;8503;52.472;13.344;2024-02-26T03:49:50;3.28;;;2.70;;
16770;SDS011;8503;52.472;13.344;2024-02-26T03:50:32;4.90;;;3.08;;
16770;SDS011;8503;52.472;13.344;2024-02-26T03:51:16;5.25;;;3.45;;
16770;SDS011;8503;52.472;13.344;2024-02-26T03:52:00;5.53;;;3.13;;
16770;SDS011;8503;52.472;13.344;2024-02-26T03:52:42;5.78;;;3.10;;
16770;SDS011;8503;52.472;13.344;2024-02-26T03:53:25;5.72;;;3.10;;
16770;SDS011;8503;52.472;13.344;2024-02-26T03:54:09;7.10;;;3.67;;
16770;SDS011;8503;52.472;13.344;2024-02-26T03:54:51;4.78;;;3.00;;
16770;SDS011;8503;52.472;13.344;2024-02-26T03:55:35;5.78;;;3.10;;
16770;SDS011;8503;52.472;13.344;2024-02-26T03:56:18;4.75;;;3.35;;
16770;SDS011;8503;52.472;13.344;2024-02-26T03:57:01;6.95;;;3.70;;
16770;SDS011;8503;52.472;13.344;2024-02-26T03:57:45;5.43;;;3.22;;
16770;SDS011;8503;52.472;13.344;2024-02-26T03:58:29;4.60;;;3.00;;
16770;SDS011;8503;52.472;13.344;2024-02-26T03:59:11;6.40;;;3.20;;
16770;SDS011;8503;52.472;13.344;2024-02-26T03:59:55;5.55;;;3.13;;
16770;SDS011;8503;52.472;13.344;2024-02-26T04:00:38;5.35;;;2.65;;
16770;SDS011;8503;52.472;13.344;2024-02-26T04:01:20;4.80;;;3.30;;
16770;SDS011;8503;52.472;13.344;2024-02-26T04:02:04;4.72;;;3.35;;
16770;SDS011;8503;52.472;13.344;2024-02-26T04:02:49;7.00;;;3.17;;
16770;SDS011;8503;52.472;13.344;2024-02-26T04:03:32;5.82;;;3.42;;
16770;SDS011;8503;52.472;13.344;2024-02-26T04:04:15;6.80;;;3.85;;
16770;SDS011;8503;52.472;13.344;2024-02-26T04:04:58;5.97;;;3.30;;
16770;SDS011;8503;52.472;13.344;2024-02-26T04:05:43;6.18;;;3.35;;
16770;SDS011;8503;52.472;13.344;2024-02-26T04:06:27;5.90;;;3.25;;
16770;SDS011;8503;52.472;13.344;2024-02-26T04:07:11;5.57;;;3.40;;
16770;SDS011;8503;52.472;13.344;2024-02-26T04:07:54;4.72;;;3.00;;
16770;SDS011;8503;52.472;13.344;2024-02-26T04:08:38;7.22;;;3.30;;
16770;SDS011;8503;52.472;13.344;2024-02-26T04:09:20;5.72;;;3.28;;
16770;SDS011;8503;52.472;13.344;2024-02-26T04:10:03;5.35;;;3.40;;
16770;SDS011;8503;52.472;13.344;2024-02-26T04:10:50;7.05;;;3.03;;
16770;SDS011;8503;52.472;13.344;2024-02-26T04:11:33;7.95;;;3.53;;
16770;SDS011;8503;52.472;13.344;2024-02-26T04:12:15;4.32;;;3.15;;
16770;SDS011;8503;52.472;13.344;2024-02-26T04:13:00;4.28;;;3.47;;
16770;SDS011;8503;52.472;13.344;2024-02-26T04:13:43;3.80;;;3.10;;
16770;SDS011;8503;52.472;13.344;2024-02-26T04:14:27;4.57;;;3.05;;
16770;SDS011;8503;52.472;13.344;2024-02-26T04:15:10;4.95;;;3.10;;
16770;SDS011;8503;52.472;13.344;2024-02-26T04:15:53;6.32;;;3.22;;
16770;SDS011;8503;52.472;13.344;2024-02-26T04:16:35;3.85;;;3.08;;
16770;SDS011;8503;52.472;13.344;2024-02-26T04:17:19;6.13;;;3.13;;
16770;SDS011;8503;52.472;13.344;2024-02-26T04:18:01;6.80;;;3.38;;
16770;SDS011;8503;52.472;13.344;2024-02-26T04:18:45;4.18;;;3.15;;
16770;SDS011;8503;52.472;13.344;2024-02-26T04:19:29;5.60;;;3.33;;
16770;SDS011;8503;52.472;13.344;2024-02-26T04:20:13;8.55;;;3.50;;
16770;SDS011;8503;52.472;13.344;2024-02-26T04:20:57;6.45;;;2.80;;
16770;SDS011;8503;52.472;13.344;2024-02-26T04:21:41;3.60;;;2.80;;